createdAt,value
2024-03-13T00:01:11.775Z,8.17
2024-03-13T00:03:39.183Z,8.17
2024-03-13T00:06:06.683Z,8.19
2024-03-13T00:08:33.847Z,8.18
2024-03-13T00:11:01.147Z,8.19
2024-03-13T00:13:30.605Z,8.19
2024-03-13T00:15:59.429Z,8.18
2024-03-13T00:18:26.843Z,8.18
2024-03-13T00:20:53.988Z,8.17
2024-03-13T00:23:21.191Z,8.17
2024-03-13T00:25:48.418Z,8.19
2024-03-13T00:28:15.725Z,8.18
2024-03-13T00:30:43.118Z,8.20
2024-03-13T00:33:10.382Z,8.22
2024-03-13T00:35:37.854Z,8.24
2024-03-13T00:38:05.469Z,8.26
2024-03-13T00:40:33.712Z,8.27
2024-03-13T00:43:01.235Z,8.24
2024-03-13T00:45:28.690Z,8.26
2024-03-13T00:47:56.202Z,8.27
2024-03-13T00:50:24.468Z,8.27
2024-03-13T00:52:52.000Z,8.26
2024-03-13T00:55:19.287Z,8.27
2024-03-13T00:57:48.273Z,8.24
2024-03-13T01:00:20.006Z,8.27
2024-03-13T01:02:47.338Z,8.26
2024-03-13T01:05:18.553Z,8.27
2024-03-13T01:07:49.966Z,8.29
2024-03-13T01:10:18.158Z,8.29
2024-03-13T01:12:45.591Z,8.30
2024-03-13T01:15:16.521Z,8.31
2024-03-13T01:17:44.440Z,8.30
2024-03-13T01:20:16.648Z,8.31
2024-03-13T01:22:45.520Z,8.33
2024-03-13T01:25:12.779Z,8.33
2024-03-13T01:27:41.485Z,8.35
2024-03-13T01:30:10.046Z,8.36
2024-03-13T01:32:39.086Z,8.34
2024-03-13T01:35:08.051Z,8.35
2024-03-13T01:37:53.717Z,8.34
2024-03-13T01:40:27.344Z,8.33
2024-03-13T01:43:13.567Z,8.35
2024-03-13T01:46:08.697Z,8.34
2024-03-13T01:48:56.798Z,8.34
2024-03-13T01:51:42.821Z,8.35
2024-03-13T01:54:28.684Z,8.36
2024-03-13T01:57:14.235Z,8.39
2024-03-13T02:00:11.523Z,8.39
2024-03-13T02:02:42.372Z,8.43
2024-03-13T02:05:09.886Z,8.43
2024-03-13T02:07:37.331Z,8.44
2024-03-13T02:10:05.778Z,8.39
2024-03-13T02:12:33.141Z,8.41
2024-03-13T02:15:00.468Z,8.41
2024-03-13T02:17:28.098Z,8.42
2024-03-13T02:19:57.278Z,8.43
2024-03-13T02:22:25.505Z,8.45
2024-03-13T02:24:53.802Z,8.45
2024-03-13T02:27:21.230Z,8.44
2024-03-13T02:29:50.578Z,8.47
2024-03-13T02:32:17.745Z,8.46
2024-03-13T02:34:47.693Z,8.48
2024-03-13T02:37:14.922Z,8.49
2024-03-13T02:39:42.533Z,8.48
2024-03-13T02:42:11.229Z,8.48
2024-03-13T02:44:38.433Z,8.50
2024-03-13T02:47:05.871Z,8.49
2024-03-13T02:49:33.199Z,8.51
2024-03-13T02:52:00.487Z,8.51
2024-03-13T02:54:27.870Z,8.52
2024-03-13T02:56:54.979Z,8.53
2024-03-13T02:59:22.223Z,8.51
2024-03-13T03:01:50.210Z,8.53
2024-03-13T03:04:18.159Z,8.52
2024-03-13T03:06:47.397Z,8.52
2024-03-13T03:09:14.799Z,8.50
2024-03-13T03:11:44.790Z,8.53
2024-03-13T03:14:12.030Z,8.51
2024-03-13T03:16:39.189Z,8.52
2024-03-13T03:19:06.407Z,8.52
2024-03-13T03:21:34.412Z,8.56
2024-03-13T03:24:02.086Z,8.59
2024-03-13T03:26:29.694Z,8.61
2024-03-13T03:28:58.050Z,8.63
2024-03-13T03:31:25.447Z,8.63
2024-03-13T03:33:53.331Z,8.63
2024-03-13T03:36:21.074Z,8.66
2024-03-13T03:38:49.288Z,8.66
2024-03-13T03:41:16.679Z,8.67
2024-03-13T03:43:45.454Z,8.70
2024-03-13T03:46:13.803Z,8.71
2024-03-13T03:48:42.042Z,8.71
2024-03-13T03:51:11.547Z,8.71
2024-03-13T03:53:39.301Z,8.70
2024-03-13T03:56:08.712Z,8.67
2024-03-13T03:58:36.215Z,8.72
2024-03-13T04:01:03.590Z,8.72
2024-03-13T04:03:31.123Z,8.73
2024-03-13T04:05:58.655Z,8.74
2024-03-13T04:08:25.770Z,8.74
2024-03-13T04:10:53.389Z,8.75
2024-03-13T04:13:21.333Z,8.75
2024-03-13T04:15:48.674Z,8.75
2024-03-13T04:18:15.940Z,8.74
2024-03-13T04:20:44.502Z,8.76
2024-03-13T04:23:13.716Z,8.77
2024-03-13T04:25:45.940Z,8.77
2024-03-13T04:28:13.347Z,8.79
2024-03-13T04:30:43.526Z,8.80
2024-03-13T04:33:11.156Z,8.80
2024-03-13T04:35:38.333Z,8.80
2024-03-13T04:38:06.084Z,8.80
2024-03-13T04:40:33.306Z,8.81
2024-03-13T04:43:01.605Z,8.81
2024-03-13T04:45:28.812Z,8.83
2024-03-13T04:47:56.185Z,8.82
2024-03-13T04:50:23.511Z,8.83
2024-03-13T04:52:50.752Z,8.83
2024-03-13T04:55:18.028Z,8.85
2024-03-13T04:57:45.251Z,8.87
2024-03-13T05:00:12.805Z,8.82
2024-03-13T05:02:41.086Z,8.82
2024-03-13T05:05:17.260Z,8.82
2024-03-13T05:07:45.033Z,8.82
2024-03-13T05:10:12.918Z,8.82
2024-03-13T05:12:40.133Z,8.85
2024-03-13T05:15:08.388Z,8.85
2024-03-13T05:17:38.393Z,8.88
2024-03-13T05:20:08.688Z,8.87
2024-03-13T05:22:36.221Z,8.87
2024-03-13T05:25:06.421Z,8.87
2024-03-13T05:27:34.129Z,8.88
2024-03-13T05:30:01.374Z,8.88
2024-03-13T05:32:28.666Z,8.88
2024-03-13T05:34:57.195Z,8.94
2024-03-13T05:37:24.412Z,8.92
2024-03-13T05:39:53.976Z,8.94
2024-03-13T05:42:21.273Z,8.93
2024-03-13T05:44:48.428Z,8.95
2024-03-13T05:47:16.316Z,8.92
2024-03-13T05:49:43.550Z,8.96
2024-03-13T05:52:10.800Z,8.94
2024-03-13T05:54:38.096Z,8.97
2024-03-13T05:57:05.501Z,8.97
2024-03-13T05:59:32.676Z,9.00
2024-03-13T06:02:00.091Z,9.03
2024-03-13T06:04:27.479Z,9.03
2024-03-13T06:06:54.859Z,8.98
2024-03-13T06:09:24.456Z,9.00
2024-03-13T06:11:51.639Z,8.98
2024-03-13T06:14:18.779Z,8.98
2024-03-13T06:16:46.011Z,9.00
2024-03-13T06:19:13.528Z,9.00
2024-03-13T06:21:40.997Z,8.98
2024-03-13T06:24:08.164Z,9.02
2024-03-13T06:26:35.420Z,9.03
2024-03-13T06:29:21.014Z,9.03
2024-03-13T06:31:48.348Z,9.02
2024-03-13T06:34:15.527Z,9.03
2024-03-13T06:36:42.727Z,9.03
2024-03-13T06:39:10.905Z,9.03
2024-03-13T06:41:38.100Z,9.07
2024-03-13T06:44:06.942Z,9.07
2024-03-13T06:46:34.883Z,9.08
2024-03-13T06:49:02.070Z,9.08
2024-03-13T06:51:29.348Z,9.09
2024-03-13T06:53:56.622Z,9.11
2024-03-13T06:56:24.040Z,9.11
2024-03-13T06:58:51.870Z,9.11
2024-03-13T07:01:20.350Z,9.12
2024-03-13T07:03:47.717Z,9.16
2024-03-13T07:06:16.234Z,9.17
2024-03-13T07:08:43.536Z,9.18
2024-03-13T07:11:10.902Z,9.17
2024-03-13T07:13:38.316Z,9.18
2024-03-13T07:16:05.963Z,9.19
2024-03-13T07:18:36.418Z,9.22
2024-03-13T07:21:04.863Z,9.21
2024-03-13T07:23:32.041Z,9.22
2024-03-13T07:26:00.920Z,9.23
2024-03-13T07:28:28.205Z,9.24
2024-03-13T07:30:56.108Z,9.27
2024-03-13T07:33:23.302Z,9.27
2024-03-13T07:35:50.513Z,9.26
2024-03-13T07:38:17.758Z,9.27
2024-03-13T07:40:45.656Z,9.27
2024-03-13T07:43:12.958Z,9.31
2024-03-13T07:45:44.414Z,9.32
2024-03-13T07:48:11.909Z,9.33
2024-03-13T07:50:40.731Z,9.33
2024-03-13T07:53:08.144Z,9.35
2024-03-13T07:55:36.217Z,9.36
2024-03-13T07:58:04.566Z,9.37
2024-03-13T08:00:37.258Z,9.37
2024-03-13T08:03:04.988Z,9.38
2024-03-13T08:05:33.631Z,9.38
2024-03-13T09:07:12.888Z,9.57
2024-03-13T09:09:40.100Z,9.57
2024-03-13T09:12:09.141Z,9.56
2024-03-13T09:14:39.290Z,9.57
2024-03-13T09:17:12.702Z,9.57
2024-03-13T09:19:40.206Z,9.61
2024-03-13T09:22:09.430Z,9.61
2024-03-13T09:24:36.671Z,9.63
2024-03-13T09:27:04.020Z,9.66
2024-03-13T09:29:33.200Z,9.65
2024-03-13T09:32:00.705Z,9.65
2024-03-13T09:34:32.067Z,9.67
2024-03-13T09:37:01.251Z,9.70
2024-03-13T09:39:28.550Z,9.69
2024-03-13T09:41:59.141Z,9.71
2024-03-13T09:44:27.785Z,9.71
2024-03-13T09:46:57.312Z,9.68
2024-03-13T09:49:27.192Z,9.68
2024-03-13T09:51:55.331Z,9.74
2024-03-13T09:54:22.903Z,9.74
2024-03-13T09:56:51.340Z,9.74
2024-03-13T09:59:18.513Z,9.74
2024-03-13T10:01:53.090Z,9.76
2024-03-13T10:04:26.229Z,9.76
2024-03-13T10:07:00.404Z,9.75
2024-03-13T10:09:36.940Z,9.74
2024-03-13T10:12:06.593Z,9.71
2024-03-13T10:14:34.902Z,9.71
2024-03-13T10:17:07.199Z,9.70
2024-03-13T10:19:40.505Z,9.74
2024-03-13T10:22:08.794Z,9.71
2024-03-13T10:24:38.174Z,9.72
2024-03-13T10:27:09.139Z,9.74
2024-03-13T10:29:36.670Z,9.75
2024-03-13T10:32:06.127Z,9.76
2024-03-13T10:34:37.103Z,9.76
2024-03-13T10:37:15.025Z,9.79
2024-03-13T10:39:45.470Z,9.80
2024-03-13T10:42:13.122Z,9.81
2024-03-13T10:44:41.770Z,9.82
2024-03-13T10:47:10.906Z,9.80
2024-03-13T10:49:38.203Z,9.82
2024-03-13T10:52:13.893Z,9.81
2024-03-13T10:54:42.682Z,9.84
2024-03-13T10:57:18.591Z,9.85
2024-03-13T10:59:49.935Z,9.85
2024-03-13T11:02:17.276Z,9.83
2024-03-13T11:04:46.002Z,9.88
2024-03-13T11:07:14.059Z,9.91
2024-03-13T11:09:41.961Z,9.94
2024-03-13T11:12:21.146Z,9.98
2024-03-13T11:14:53.682Z,10.07
2024-03-13T11:17:22.587Z,10.03
2024-03-13T11:20:09.801Z,10.04
2024-03-13T11:22:37.823Z,10.04
2024-03-13T11:25:13.728Z,10.03
2024-03-13T11:27:50.855Z,10.03
2024-03-13T11:30:22.122Z,10.04
2024-03-13T11:32:52.850Z,10.09
2024-03-13T11:35:20.838Z,10.07
2024-03-13T11:37:48.877Z,10.07
2024-03-13T11:40:17.384Z,10.10
2024-03-13T11:42:45.238Z,10.07
2024-03-13T11:45:17.780Z,10.09
2024-03-13T11:47:49.672Z,10.07
2024-03-13T11:50:17.164Z,10.08
2024-03-13T11:53:02.494Z,10.06
2024-03-13T11:55:31.424Z,10.08
2024-03-13T11:58:04.269Z,10.04
2024-03-13T12:00:31.754Z,10.05
2024-03-13T12:02:59.052Z,10.05
2024-03-13T12:05:37.518Z,10.03
2024-03-13T12:08:05.665Z,10.04
2024-03-13T12:10:33.035Z,10.06
2024-03-13T12:13:00.350Z,10.10
2024-03-13T12:15:28.630Z,10.13
2024-03-13T12:17:59.259Z,10.15
2024-03-13T12:20:29.989Z,10.14
2024-03-13T12:23:00.026Z,10.19
2024-03-13T12:25:27.515Z,10.18
2024-03-13T12:27:54.952Z,10.16
2024-03-13T12:30:23.037Z,10.21
2024-03-13T12:33:01.680Z,10.23
2024-03-13T12:35:30.525Z,10.22
2024-03-13T12:37:59.797Z,10.21
2024-03-13T12:40:28.035Z,10.20
2024-03-13T12:42:55.838Z,10.19
2024-03-13T12:45:24.455Z,10.19
2024-03-13T12:47:52.074Z,10.21
2024-03-13T12:50:20.185Z,10.18
2024-03-13T12:52:48.194Z,10.19
2024-03-13T12:55:22.766Z,10.22
2024-03-13T12:57:50.855Z,10.21
2024-03-13T13:00:22.271Z,10.19
2024-03-13T13:02:55.407Z,10.18
2024-03-13T13:05:23.018Z,10.19
2024-03-13T13:07:53.578Z,10.19
2024-03-13T13:10:26.438Z,10.22
2024-03-13T13:12:54.862Z,10.25
2024-03-13T13:15:23.530Z,10.26
2024-03-13T13:17:51.381Z,10.28
2024-03-13T13:20:24.724Z,10.29
2024-03-13T13:22:53.563Z,10.29
2024-03-13T13:25:23.335Z,10.31
2024-03-13T13:27:55.795Z,10.35
2024-03-13T13:30:23.466Z,10.34
2024-03-13T13:32:52.557Z,10.34
2024-03-13T13:35:20.114Z,10.37
2024-03-13T13:37:48.149Z,10.35
2024-03-13T13:40:24.920Z,10.41
2024-03-13T13:42:56.284Z,10.42
2024-03-13T13:45:24.864Z,10.42
2024-03-13T13:47:53.208Z,10.39
2024-03-13T13:50:21.752Z,10.37
2024-03-13T13:52:49.333Z,10.37
2024-03-13T13:55:18.021Z,10.36
2024-03-13T13:57:52.290Z,10.38
2024-03-13T14:00:24.676Z,10.37
2024-03-13T14:02:54.475Z,10.38
2024-03-13T14:05:22.529Z,10.41
2024-03-13T14:07:53.023Z,10.39
2024-03-13T14:10:20.967Z,10.39
2024-03-13T14:12:50.011Z,10.39
2024-03-13T14:15:21.319Z,10.40
2024-03-13T14:17:51.637Z,10.39
2024-03-13T14:20:23.223Z,10.41
2024-03-13T14:22:55.401Z,10.42
2024-03-13T14:25:24.722Z,10.41
2024-03-13T14:27:51.964Z,10.39
2024-03-13T14:30:19.884Z,10.49
2024-03-13T14:32:48.028Z,10.46
2024-03-13T14:35:16.703Z,10.44
2024-03-13T14:37:44.544Z,10.44
2024-03-13T14:40:19.345Z,10.41
2024-03-13T14:42:48.343Z,10.41
2024-03-13T14:45:16.900Z,10.39
2024-03-13T14:47:46.904Z,10.46
2024-03-13T14:50:20.253Z,10.44
2024-03-13T14:55:23.179Z,10.42
2024-03-13T14:57:50.400Z,10.44
2024-03-13T15:00:18.255Z,10.44
2024-03-13T15:02:45.814Z,10.49
2024-03-13T15:05:13.998Z,10.48
2024-03-13T15:07:41.521Z,10.43
2024-03-13T15:10:12.704Z,10.40
2024-03-13T15:12:41.115Z,10.41
2024-03-13T15:15:11.595Z,10.39
2024-03-13T15:17:44.606Z,10.41
2024-03-13T15:20:14.763Z,10.46
2024-03-13T15:22:41.952Z,10.41
2024-03-13T15:25:11.393Z,10.40
2024-03-13T15:27:40.414Z,10.43
2024-03-13T15:30:09.293Z,10.46
2024-03-13T15:32:38.052Z,10.45
2024-03-13T15:35:09.323Z,10.41
2024-03-13T15:37:37.155Z,10.41
2024-03-13T15:40:23.080Z,10.36
2024-03-13T15:42:50.756Z,10.34
2024-03-13T15:45:19.376Z,10.34
2024-03-13T15:47:47.781Z,10.31
2024-03-13T15:50:24.832Z,10.35
2024-03-13T15:52:57.568Z,10.37
2024-03-13T15:55:24.893Z,10.33
2024-03-13T15:57:52.964Z,10.28
2024-03-13T16:00:24.833Z,10.28
2024-03-13T16:02:56.546Z,10.33
2024-03-13T16:05:25.187Z,10.29
2024-03-13T16:08:08.335Z,10.27
2024-03-13T16:10:35.604Z,10.24
2024-03-13T16:13:02.934Z,10.28
2024-03-13T16:15:36.697Z,10.34
2024-03-13T16:18:05.392Z,10.29
2024-03-13T16:20:32.678Z,10.23
2024-03-13T16:23:00.481Z,10.21
2024-03-13T16:25:28.537Z,10.23
2024-03-13T16:27:57.700Z,10.21
2024-03-13T16:30:25.579Z,10.23
2024-03-13T16:32:53.004Z,10.23
2024-03-13T16:35:22.187Z,10.23
2024-03-13T16:37:49.599Z,10.21
2024-03-13T16:40:19.441Z,10.24
2024-03-13T16:42:47.070Z,10.22
2024-03-13T16:45:17.777Z,10.19
2024-03-13T16:47:45.177Z,10.18
2024-03-13T16:50:16.380Z,10.16
2024-03-13T16:52:44.137Z,10.15
2024-03-13T16:55:12.928Z,10.14
2024-03-13T16:57:41.790Z,10.15
2024-03-13T17:00:17.097Z,10.16
2024-03-13T17:02:45.781Z,10.13
2024-03-13T17:05:15.860Z,10.13
2024-03-13T17:07:44.094Z,10.13
2024-03-13T17:10:11.348Z,10.11
2024-03-13T17:12:39.825Z,10.12
2024-03-13T17:15:08.001Z,10.09
2024-03-13T17:17:35.805Z,10.09
2024-03-13T17:20:03.099Z,10.07
2024-03-13T17:22:30.293Z,10.07
2024-03-13T17:24:57.446Z,10.06
2024-03-13T17:27:24.781Z,10.05
2024-03-13T17:29:51.999Z,10.03
2024-03-13T17:32:20.996Z,10.00
2024-03-13T17:34:50.345Z,9.64
2024-03-13T17:37:17.564Z,9.75
2024-03-13T17:39:44.869Z,9.85
2024-03-13T17:42:14.896Z,9.89
2024-03-13T17:44:42.304Z,9.91
2024-03-13T17:47:09.550Z,9.91
2024-03-13T17:49:37.468Z,9.89
2024-03-13T17:52:04.775Z,9.90
2024-03-13T17:54:33.079Z,9.86
2024-03-13T17:57:00.473Z,9.86
2024-03-13T17:59:27.731Z,9.86
2024-03-13T18:01:54.981Z,9.81
2024-03-13T18:04:22.310Z,9.82
2024-03-13T18:06:49.659Z,9.78
2024-03-13T18:09:17.094Z,9.76
2024-03-13T18:11:44.456Z,9.72
2024-03-13T18:14:13.031Z,9.72
2024-03-13T18:16:41.373Z,9.71
2024-03-13T18:19:09.445Z,9.69
2024-03-13T18:21:36.911Z,9.75
2024-03-13T18:24:04.526Z,9.72
2024-03-13T18:26:34.864Z,9.71
2024-03-13T18:29:02.116Z,9.70
2024-03-13T18:31:29.369Z,9.72
2024-03-13T18:33:56.899Z,9.70
2024-03-13T18:36:24.807Z,9.68
2024-03-13T18:38:52.263Z,9.68
2024-03-13T18:41:21.295Z,9.69
2024-03-13T18:43:48.482Z,9.68
2024-03-13T18:46:16.609Z,9.69
2024-03-13T18:48:44.050Z,9.66
2024-03-13T18:51:11.346Z,9.66
2024-03-13T18:53:38.652Z,9.63
2024-03-13T18:56:07.224Z,9.66
2024-03-13T18:58:36.073Z,9.76
2024-03-13T19:01:04.636Z,9.81
2024-03-13T19:03:31.959Z,9.78
2024-03-13T19:05:59.815Z,9.69
2024-03-13T19:08:29.447Z,9.65
2024-03-13T19:10:56.784Z,9.64
2024-03-13T19:13:23.980Z,9.65
2024-03-13T19:15:55.501Z,9.61
2024-03-13T19:18:22.871Z,9.59
2024-03-13T19:20:50.084Z,9.56
2024-03-13T19:23:17.453Z,9.54
2024-03-13T19:25:44.574Z,9.51
2024-03-13T19:28:11.822Z,9.51
2024-03-13T19:30:39.079Z,9.51
2024-03-13T19:33:06.597Z,9.50
2024-03-13T19:35:36.020Z,9.51
2024-03-13T19:38:03.507Z,9.50
2024-03-13T19:40:30.693Z,9.47
2024-03-13T19:43:01.776Z,9.47
2024-03-13T19:45:29.369Z,9.47
2024-03-13T19:47:57.984Z,9.46
2024-03-13T19:50:25.293Z,9.48
2024-03-13T19:52:52.537Z,9.42
2024-03-13T19:55:19.735Z,9.41
2024-03-13T19:57:46.965Z,9.40
2024-03-13T20:00:18.896Z,9.38
2024-03-13T20:02:46.566Z,9.36
2024-03-13T20:05:14.675Z,9.35
2024-03-13T20:07:44.601Z,9.33
2024-03-13T20:10:14.971Z,9.33
2024-03-13T20:12:42.549Z,9.33
2024-03-13T20:15:10.499Z,9.33
2024-03-13T20:17:39.616Z,9.32
2024-03-13T20:20:07.631Z,9.30
2024-03-13T20:22:36.842Z,9.30
2024-03-13T20:25:04.528Z,9.30
2024-03-13T20:27:31.937Z,9.26
2024-03-13T20:29:59.296Z,9.26
2024-03-13T20:32:26.597Z,9.24
2024-03-13T20:34:53.868Z,9.25
2024-03-13T20:37:23.286Z,9.23
2024-03-13T20:39:53.422Z,9.22
2024-03-13T20:42:23.629Z,9.17
2024-03-13T20:44:50.858Z,9.18
2024-03-13T20:47:18.251Z,9.18
2024-03-13T20:49:45.866Z,9.19
2024-03-13T20:52:13.040Z,9.19
2024-03-13T20:54:40.641Z,9.17
2024-03-13T20:57:08.033Z,9.16
2024-03-13T20:59:35.945Z,9.18
2024-03-13T21:02:05.733Z,9.29
2024-03-13T21:04:32.981Z,9.30
2024-03-13T21:07:00.160Z,9.23
2024-03-13T21:09:28.113Z,9.18
2024-03-13T21:11:57.040Z,9.15
2024-03-13T21:14:24.640Z,9.15
2024-03-13T21:16:52.840Z,9.15
2024-03-13T21:19:20.330Z,9.14
2024-03-13T21:21:47.575Z,9.07
2024-03-13T21:24:14.994Z,9.08
2024-03-13T21:26:43.209Z,9.09
2024-03-13T21:29:15.666Z,9.12
2024-03-13T21:31:43.450Z,9.10
2024-03-13T21:34:17.156Z,9.09
2024-03-13T21:36:48.660Z,9.06
2024-03-13T21:39:15.992Z,9.06
2024-03-13T21:41:43.905Z,9.07
2024-03-13T21:44:11.162Z,9.05
2024-03-13T21:46:38.541Z,9.06
2024-03-13T21:49:05.947Z,9.02
2024-03-13T21:51:33.392Z,9.02
2024-03-13T21:54:02.138Z,9.06
2024-03-13T21:56:32.709Z,9.04
2024-03-13T21:59:01.055Z,9.03
2024-03-13T22:01:28.344Z,9.03
2024-03-13T22:03:58.453Z,9.00
2024-03-13T22:06:26.526Z,9.01
2024-03-13T22:08:53.832Z,8.98
2024-03-13T22:11:21.156Z,9.00
2024-03-13T22:13:48.575Z,9.00
2024-03-13T22:16:16.378Z,9.00
2024-03-13T22:18:43.814Z,9.01
2024-03-13T22:21:11.431Z,8.98
2024-03-13T22:23:40.309Z,8.98
2024-03-13T22:26:09.273Z,8.96
2024-03-13T22:28:36.440Z,8.94
2024-03-13T22:31:03.749Z,8.95
2024-03-13T22:33:31.149Z,8.93
2024-03-13T22:35:58.486Z,8.92
2024-03-13T22:38:25.631Z,8.93
2024-03-13T22:40:53.068Z,8.91
2024-03-13T22:43:20.222Z,8.91
2024-03-13T22:45:48.420Z,8.90
2024-03-13T22:48:15.821Z,8.90
2024-03-13T22:50:43.162Z,8.90
2024-03-13T22:53:10.450Z,8.89
2024-03-13T22:55:37.667Z,8.87
2024-03-13T22:58:04.955Z,8.87
2024-03-13T23:00:32.186Z,8.85
2024-03-13T23:02:59.371Z,8.85
2024-03-13T23:05:26.544Z,8.85
2024-03-13T23:07:53.963Z,8.83
2024-03-13T23:10:24.061Z,8.83
2024-03-13T23:12:52.828Z,8.85
2024-03-13T23:15:20.153Z,8.86
2024-03-13T23:17:47.442Z,8.86
2024-03-13T23:20:14.863Z,8.83
2024-03-13T23:22:42.849Z,8.81
2024-03-13T23:25:11.592Z,8.79
2024-03-13T23:27:39.695Z,8.81
2024-03-13T23:30:08.875Z,8.80
2024-03-13T23:32:36.700Z,8.78
2024-03-13T23:35:07.193Z,8.81
2024-03-13T23:37:37.280Z,8.78
2024-03-13T23:40:06.062Z,8.76
2024-03-13T23:42:44.582Z,8.78
2024-03-13T23:45:14.118Z,8.80
2024-03-13T23:47:42.767Z,8.79
2024-03-13T23:50:13.668Z,8.80
2024-03-13T23:52:41.443Z,8.77
2024-03-13T23:55:08.716Z,8.79
2024-03-13T23:57:36.458Z,8.78
